createdAt,value
2016-10-25T00:00:21.457Z,1007.88
2016-10-25T00:02:21.395Z,1007.88
2016-10-25T00:03:21.363Z,1007.84
2016-10-25T00:04:21.348Z,1007.86
2016-10-25T00:06:21.288Z,1007.84
2016-10-25T00:07:21.250Z,1007.84
2016-10-25T00:08:21.225Z,1007.89
2016-10-25T00:09:21.200Z,1007.85
2016-10-25T00:10:21.169Z,1007.82
2016-10-25T00:11:21.134Z,1007.83
2016-10-25T00:12:21.107Z,1007.86
2016-10-25T00:13:21.079Z,1007.84
2016-10-25T00:14:21.052Z,1007.88
2016-10-25T00:15:21.088Z,1007.82
2016-10-25T00:16:20.991Z,1007.83
2016-10-25T00:17:20.963Z,1007.81
2016-10-25T00:18:21.000Z,1007.85
2016-10-25T00:19:20.907Z,1007.85
2016-10-25T00:20:20.877Z,1007.85
2016-10-25T00:21:20.844Z,1007.8
2016-10-25T00:22:20.817Z,1007.9
2016-10-25T00:23:20.788Z,1007.84
2016-10-25T00:24:20.762Z,1007.9
2016-10-25T00:25:20.733Z,1007.89
2016-10-25T00:26:20.705Z,1007.9
2016-10-25T00:27:20.681Z,1007.9
2016-10-25T00:28:20.647Z,1007.92
2016-10-25T00:29:20.617Z,1007.9
2016-10-25T00:30:20.588Z,1007.93
2016-10-25T00:31:20.561Z,1007.93
2016-10-25T00:33:20.502Z,1007.99
2016-10-25T00:34:20.474Z,1008
2016-10-25T00:35:20.449Z,1008.04
2016-10-25T00:36:20.416Z,1008.03
2016-10-25T00:37:20.388Z,1008.04
2016-10-25T00:38:20.375Z,1008.02
2016-10-25T00:39:20.327Z,1008.04
2016-10-25T00:40:20.305Z,1007.98
2016-10-25T00:41:20.280Z,1008.02
2016-10-25T00:42:20.251Z,1008
2016-10-25T00:43:20.219Z,1008.03
2016-10-25T00:44:20.196Z,1008.02
2016-10-25T00:45:20.163Z,1008.03
2016-10-25T00:46:20.139Z,1008.03
2016-10-25T00:47:20.101Z,1008.07
2016-10-25T00:48:20.075Z,1008.07
2016-10-25T00:49:20.037Z,1008.03
2016-10-25T00:50:20.013Z,1008.05
2016-10-25T00:51:19.993Z,1008.05
2016-10-25T00:53:19.937Z,1008.05
2016-10-25T00:54:19.906Z,1008.06
2016-10-25T00:55:19.875Z,1008.06
2016-10-25T00:56:19.869Z,1008.07
2016-10-25T00:57:19.810Z,1008.08
2016-10-25T00:58:19.784Z,1008.04
2016-10-25T00:59:19.760Z,1008.06
2016-10-25T01:00:19.740Z,1008.07
2016-10-25T01:01:19.968Z,1008.05
2016-10-25T01:02:19.680Z,1008.08
2016-10-25T01:03:19.639Z,1008.07
2016-10-25T01:04:19.617Z,1008.09
2016-10-25T01:05:19.596Z,1008.09
2016-10-25T01:06:19.556Z,1008.15
2016-10-25T01:07:19.528Z,1008.15
2016-10-25T01:08:19.506Z,1008.19
2016-10-25T01:09:19.486Z,1008.23
2016-10-25T01:10:19.439Z,1008.27
2016-10-25T01:11:19.422Z,1008.25
2016-10-25T01:12:19.382Z,1008.27
2016-10-25T01:13:19.408Z,1008.29
2016-10-25T01:14:19.330Z,1008.34
2016-10-25T01:15:19.293Z,1008.36
2016-10-25T01:16:19.267Z,1008.38
2016-10-25T01:17:19.237Z,1008.37
2016-10-25T01:18:19.216Z,1008.41
2016-10-25T01:19:19.196Z,1008.47
2016-10-25T01:20:19.151Z,1008.44
2016-10-25T01:21:19.121Z,1008.47
2016-10-25T01:22:19.098Z,1008.45
2016-10-25T01:23:19.165Z,1008.48
2016-10-25T01:24:19.042Z,1008.5
2016-10-25T01:25:19.011Z,1008.5
2016-10-25T01:26:18.989Z,1008.54
2016-10-25T01:27:18.954Z,1008.58
2016-10-25T01:29:18.892Z,1008.58
2016-10-25T01:30:18.864Z,1008.52
2016-10-25T01:31:18.876Z,1008.54
2016-10-25T01:32:18.817Z,1008.54
2016-10-25T01:33:18.777Z,1008.55
2016-10-25T01:34:18.751Z,1008.56
2016-10-25T01:35:18.720Z,1008.53
2016-10-25T01:36:18.718Z,1008.6
2016-10-25T01:37:18.673Z,1008.64
2016-10-25T01:38:18.643Z,1008.66
2016-10-25T01:39:18.607Z,1008.65
2016-10-25T01:40:18.579Z,1008.69
2016-10-25T01:41:18.553Z,1008.64
2016-10-25T01:42:18.522Z,1008.68
2016-10-25T01:43:18.494Z,1008.72
2016-10-25T01:44:18.466Z,1008.72
2016-10-25T01:45:18.444Z,1008.71
2016-10-25T01:46:18.405Z,1008.73
2016-10-25T01:47:18.384Z,1008.76
2016-10-25T01:48:18.363Z,1008.76
2016-10-25T01:49:18.319Z,1008.76
2016-10-25T01:50:18.310Z,1008.76
2016-10-25T01:51:18.277Z,1008.79
2016-10-25T01:52:18.245Z,1008.8
2016-10-25T01:53:18.509Z,1008.79
2016-10-25T01:54:18.167Z,1008.8
2016-10-25T01:55:18.198Z,1008.77
2016-10-25T01:57:18.089Z,1008.82
2016-10-25T01:58:18.068Z,1008.81
2016-10-25T01:59:18.057Z,1008.8
2016-10-25T02:00:18.004Z,1008.8
2016-10-25T02:01:17.974Z,1008.86
2016-10-25T02:02:17.945Z,1008.84
2016-10-25T02:03:17.916Z,1008.89
2016-10-25T02:04:17.906Z,1008.8
2016-10-25T02:05:17.861Z,1008.9
2016-10-25T02:06:17.830Z,1008.93
2016-10-25T02:07:17.801Z,1008.87
2016-10-25T02:08:17.919Z,1008.88
2016-10-25T02:09:17.755Z,1008.87
2016-10-25T02:10:17.717Z,1008.9
2016-10-25T02:11:17.717Z,1008.89
2016-10-25T02:12:17.666Z,1008.92
2016-10-25T02:13:17.631Z,1008.91
2016-10-25T02:14:17.650Z,1008.95
2016-10-25T02:15:17.591Z,1008.96
2016-10-25T02:16:17.539Z,1008.98
2016-10-25T02:17:17.523Z,1008.91
2016-10-25T02:18:17.483Z,1008.89
2016-10-25T02:19:17.453Z,1008.96
2016-10-25T02:21:17.464Z,1008.95
2016-10-25T02:22:17.379Z,1008.98
2016-10-25T02:23:17.345Z,1008.97
2016-10-25T02:24:17.313Z,1008.96
2016-10-25T02:25:17.287Z,1008.98
2016-10-25T02:26:17.253Z,1008.99
2016-10-25T02:27:17.227Z,1008.97
2016-10-25T02:28:17.197Z,1009.02
2016-10-25T02:29:17.179Z,1009.02
2016-10-25T02:30:17.139Z,1009.02
2016-10-25T02:31:17.115Z,1009.01
2016-10-25T02:32:17.095Z,1009.01
2016-10-25T02:33:17.055Z,1009.04
2016-10-25T02:34:17.026Z,1009.01
2016-10-25T02:35:17.002Z,1009.03
2016-10-25T02:36:16.970Z,1009.05
2016-10-25T02:37:16.944Z,1009.06
2016-10-25T02:38:16.911Z,1009.07
2016-10-25T02:39:16.888Z,1009.12
2016-10-25T02:40:16.864Z,1009.09
2016-10-25T02:41:16.833Z,1009.14
2016-10-25T02:42:16.795Z,1009.14
2016-10-25T02:43:16.771Z,1009.16
2016-10-25T02:45:16.709Z,1009.16
2016-10-25T02:46:16.690Z,1009.18
2016-10-25T02:47:16.664Z,1009.19
2016-10-25T02:48:16.635Z,1009.18
2016-10-25T02:49:16.615Z,1009.16
2016-10-25T02:50:16.575Z,1009.21
2016-10-25T02:51:16.547Z,1009.23
2016-10-25T02:52:16.844Z,1009.23
2016-10-25T02:53:16.480Z,1009.25
2016-10-25T02:54:16.451Z,1009.27
2016-10-25T02:55:16.427Z,1009.24
2016-10-25T02:56:16.401Z,1009.24
2016-10-25T02:57:16.367Z,1009.25
2016-10-25T02:58:16.395Z,1009.23
2016-10-25T02:59:16.308Z,1009.26
2016-10-25T03:00:16.327Z,1009.27
2016-10-25T03:01:16.376Z,1009.27
2016-10-25T03:02:16.218Z,1009.29
2016-10-25T03:03:16.194Z,1009.28
2016-10-25T03:04:16.177Z,1009.31
2016-10-25T03:05:16.151Z,1009.25
2016-10-25T03:06:16.104Z,1009.24
2016-10-25T03:07:16.108Z,1009.3
2016-10-25T03:09:16.019Z,1009.32
2016-10-25T03:10:16.004Z,1009.33
2016-10-25T03:11:15.960Z,1009.33
2016-10-25T03:12:15.943Z,1009.37
2016-10-25T03:13:15.903Z,1009.4
2016-10-25T03:14:15.884Z,1009.39
2016-10-25T03:16:15.832Z,1009.39
2016-10-25T03:18:15.775Z,1009.44
2016-10-25T03:19:15.734Z,1009.49
2016-10-25T03:20:15.720Z,1009.49
2016-10-25T03:21:15.674Z,1009.48
2016-10-25T03:22:15.649Z,1009.45
2016-10-25T03:23:15.625Z,1009.47
2016-10-25T03:24:15.589Z,1009.45
2016-10-25T03:25:15.568Z,1009.48
2016-10-25T03:26:15.540Z,1009.48
2016-10-25T03:27:15.515Z,1009.55
2016-10-25T03:28:15.477Z,1009.55
2016-10-25T03:29:15.451Z,1009.54
2016-10-25T03:30:15.423Z,1009.55
2016-10-25T03:31:15.417Z,1009.57
2016-10-25T03:32:15.412Z,1009.59
2016-10-25T03:33:15.337Z,1009.6
2016-10-25T03:34:15.604Z,1009.61
2016-10-25T03:35:15.380Z,1009.6
2016-10-25T03:36:15.249Z,1009.58
2016-10-25T03:37:15.218Z,1009.61
2016-10-25T03:38:15.185Z,1009.62
2016-10-25T03:40:15.486Z,1009.66
2016-10-25T03:41:15.107Z,1009.63
2016-10-25T03:42:15.078Z,1009.59
2016-10-25T03:43:15.091Z,1009.6
2016-10-25T03:44:26.529Z,1009.6
2016-10-25T03:45:26.467Z,1009.57
2016-10-25T03:46:26.403Z,1009.59
2016-10-25T03:47:26.378Z,1009.57
2016-10-25T03:49:26.390Z,1009.56
2016-10-25T03:50:26.296Z,1009.59
2016-10-25T03:51:26.262Z,1009.62
2016-10-25T03:52:26.327Z,1009.62
2016-10-25T03:53:26.215Z,1009.65
2016-10-25T03:54:26.177Z,1009.73
2016-10-25T03:55:26.150Z,1009.73
2016-10-25T03:56:26.115Z,1009.71
2016-10-25T03:57:26.088Z,1009.75
2016-10-25T03:58:26.109Z,1009.74
2016-10-25T03:59:26.034Z,1009.72
2016-10-25T04:00:26.015Z,1009.73
2016-10-25T04:01:25.988Z,1009.75
2016-10-25T04:02:25.949Z,1009.78
2016-10-25T04:03:25.919Z,1009.8
2016-10-25T04:04:27.398Z,1009.79
2016-10-25T04:05:25.857Z,1009.78
2016-10-25T04:06:25.897Z,1009.78
2016-10-25T04:07:25.876Z,1009.77
2016-10-25T04:08:26.080Z,1009.77
2016-10-25T04:09:25.746Z,1009.78
2016-10-25T04:10:25.732Z,1009.76
2016-10-25T04:11:25.689Z,1009.75
2016-10-25T04:12:25.663Z,1009.74
2016-10-25T04:13:25.630Z,1009.73
2016-10-25T04:14:25.602Z,1009.69
2016-10-25T04:15:25.584Z,1009.68
2016-10-25T04:16:25.547Z,1009.69
2016-10-25T04:17:25.526Z,1009.7
2016-10-25T04:18:25.485Z,1009.68
2016-10-25T04:19:25.467Z,1009.68
2016-10-25T04:20:25.444Z,1009.67
2016-10-25T04:21:25.415Z,1009.68
2016-10-25T04:22:25.375Z,1009.72
2016-10-25T04:23:25.351Z,1009.73
2016-10-25T04:24:25.316Z,1009.77
2016-10-25T04:25:25.305Z,1009.81
2016-10-25T04:26:25.292Z,1009.8
2016-10-25T04:27:25.324Z,1009.83
2016-10-25T04:28:25.221Z,1009.81
2016-10-25T04:29:25.179Z,1009.84
2016-10-25T04:30:25.230Z,1009.82
2016-10-25T04:31:25.125Z,1009.84
2016-10-25T04:32:25.091Z,1009.84
2016-10-25T04:34:25.354Z,1009.89
2016-10-25T04:35:25.030Z,1009.91
2016-10-25T04:36:25.332Z,1009.96
2016-10-25T04:37:24.958Z,1010.02
2016-10-25T04:39:24.896Z,1010.04
2016-10-25T04:40:24.862Z,1010.04
2016-10-25T04:41:24.854Z,1010.1
2016-10-25T04:42:24.901Z,1010.07
2016-10-25T04:43:24.778Z,1010.11
2016-10-25T04:44:24.754Z,1010.16
2016-10-25T04:45:25.388Z,1010.21
2016-10-25T04:46:24.694Z,1010.22
2016-10-25T04:47:24.663Z,1010.25
2016-10-25T04:48:24.695Z,1010.29
2016-10-25T04:49:24.608Z,1010.36
2016-10-25T04:50:24.583Z,1010.37
2016-10-25T04:51:24.592Z,1010.39
2016-10-25T04:52:24.516Z,1010.45
2016-10-25T04:53:24.541Z,1010.49
2016-10-25T04:54:24.466Z,1010.56
2016-10-25T04:55:24.439Z,1010.58
2016-10-25T04:56:24.412Z,1010.61
2016-10-25T04:57:24.379Z,1010.56
2016-10-25T04:58:24.360Z,1010.59
2016-10-25T04:59:24.322Z,1010.56
2016-10-25T05:01:24.262Z,1010.58
2016-10-25T05:02:24.231Z,1010.62
2016-10-25T05:03:24.215Z,1010.64
2016-10-25T05:05:35.849Z,1010.66
2016-10-25T05:06:33.350Z,1010.73
2016-10-25T05:07:33.300Z,1010.78
2016-10-25T05:08:33.279Z,1010.82
2016-10-25T05:09:33.242Z,1010.84
2016-10-25T05:10:33.279Z,1010.85
2016-10-25T05:11:33.183Z,1010.89
2016-10-25T05:12:33.192Z,1010.93
2016-10-25T05:13:33.260Z,1010.97
2016-10-25T05:14:33.099Z,1010.93
2016-10-25T05:15:33.070Z,1010.98
2016-10-25T05:16:33.059Z,1010.93
2016-10-25T05:17:33.056Z,1010.93
2016-10-25T05:18:32.989Z,1010.91
2016-10-25T05:19:32.994Z,1010.89
2016-10-25T05:20:32.927Z,1010.89
2016-10-25T05:21:32.906Z,1010.9
2016-10-25T05:22:32.876Z,1010.94
2016-10-25T05:23:32.840Z,1010.99
2016-10-25T05:25:32.791Z,1010.97
2016-10-25T05:26:32.760Z,1011.03
2016-10-25T05:27:32.738Z,1011.08
2016-10-25T05:28:32.714Z,1011.11
2016-10-25T05:29:32.950Z,1011.11
2016-10-25T05:30:32.639Z,1011.15
2016-10-25T05:31:32.615Z,1011.19
2016-10-25T05:32:32.628Z,1011.19
2016-10-25T05:33:32.556Z,1011.2
2016-10-25T05:34:32.545Z,1011.16
2016-10-25T05:35:32.506Z,1011.21
2016-10-25T05:36:32.923Z,1011.25
2016-10-25T05:37:32.457Z,1011.22
2016-10-25T05:38:32.420Z,1011.18
2016-10-25T05:39:32.387Z,1011.21
2016-10-25T05:40:32.369Z,1011.2
2016-10-25T05:41:32.394Z,1011.21
2016-10-25T05:43:32.588Z,1011.29
2016-10-25T05:45:32.223Z,1011.29
2016-10-25T05:46:32.198Z,1011.36
2016-10-25T05:47:32.182Z,1011.34
2016-10-25T05:49:32.097Z,1011.4
2016-10-25T05:50:32.127Z,1011.45
2016-10-25T05:51:32.056Z,1011.44
2016-10-25T05:52:32.072Z,1011.43
2016-10-25T05:53:32.014Z,1011.44
2016-10-25T05:54:31.966Z,1011.45
2016-10-25T05:55:31.990Z,1011.45
2016-10-25T05:56:32.090Z,1011.48
2016-10-25T05:58:31.857Z,1011.48
2016-10-25T05:59:31.850Z,1011.48
2016-10-25T06:00:31.847Z,1011.5
2016-10-25T06:01:32.879Z,1011.49
2016-10-25T06:02:31.732Z,1011.51
2016-10-25T06:03:31.775Z,1011.56
2016-10-25T06:04:31.675Z,1011.57
2016-10-25T06:05:31.651Z,1011.6
2016-10-25T06:06:31.616Z,1011.63
2016-10-25T06:07:31.588Z,1011.66
2016-10-25T06:08:32.363Z,1011.68
2016-10-25T06:09:31.582Z,1011.71
2016-10-25T06:10:31.513Z,1011.76
2016-10-25T06:11:31.492Z,1011.79
2016-10-25T06:12:31.451Z,1011.84
2016-10-25T06:13:31.905Z,1011.83
2016-10-25T06:14:31.389Z,1011.83
2016-10-25T06:15:31.378Z,1011.84
2016-10-25T06:16:31.351Z,1011.85
2016-10-25T06:17:31.359Z,1011.92
2016-10-25T06:18:31.276Z,1011.91
2016-10-25T06:19:31.261Z,1011.99
2016-10-25T06:20:31.294Z,1011.99
2016-10-25T06:21:31.198Z,1012.02
2016-10-25T06:22:31.179Z,1012.04
2016-10-25T06:24:31.128Z,1012.05
2016-10-25T06:25:31.087Z,1012
2016-10-25T06:26:31.058Z,1011.99
2016-10-25T06:27:31.042Z,1012
2016-10-25T06:28:31.000Z,1011.96
2016-10-25T06:29:30.967Z,1011.98
2016-10-25T06:30:31.185Z,1011.99
2016-10-25T06:31:30.906Z,1011.98
2016-10-25T06:32:30.877Z,1012.01
2016-10-25T06:33:30.849Z,1012.03
2016-10-25T06:34:30.822Z,1012.09
2016-10-25T06:35:30.792Z,1012.14
2016-10-25T06:36:31.288Z,1012.16
2016-10-25T06:37:30.752Z,1012.22
2016-10-25T06:38:30.710Z,1012.22
2016-10-25T06:39:30.692Z,1012.23
2016-10-25T06:40:30.951Z,1012.25
2016-10-25T06:41:30.630Z,1012.24
2016-10-25T06:42:30.594Z,1012.21
2016-10-25T06:44:30.572Z,1012.27
2016-10-25T06:45:30.582Z,1012.28
2016-10-25T06:46:30.484Z,1012.35
2016-10-25T06:47:30.453Z,1012.34
2016-10-25T06:48:30.428Z,1012.38
2016-10-25T06:49:30.390Z,1012.37
2016-10-25T06:50:30.366Z,1012.38
2016-10-25T06:51:30.332Z,1012.38
2016-10-25T06:52:30.307Z,1012.41
2016-10-25T06:53:30.363Z,1012.44
2016-10-25T06:54:30.258Z,1012.47
2016-10-25T06:55:30.274Z,1012.47
2016-10-25T06:56:30.197Z,1012.5
2016-10-25T06:57:30.169Z,1012.5
2016-10-25T06:58:30.140Z,1012.45
2016-10-25T06:59:30.149Z,1012.46
2016-10-25T07:00:30.136Z,1012.45
2016-10-25T07:01:30.050Z,1012.47
2016-10-25T07:02:30.033Z,1012.48
2016-10-25T07:03:30.005Z,1012.45
2016-10-25T07:04:29.976Z,1012.51
2016-10-25T07:05:29.940Z,1012.55
2016-10-25T07:06:29.910Z,1012.51
2016-10-25T07:07:29.888Z,1012.53
2016-10-25T07:08:29.855Z,1012.54
2016-10-25T07:09:29.828Z,1012.57
2016-10-25T07:10:29.800Z,1012.59
2016-10-25T07:11:29.783Z,1012.61
2016-10-25T07:12:29.742Z,1012.62
2016-10-25T07:13:29.709Z,1012.6
2016-10-25T07:14:29.689Z,1012.63
2016-10-25T07:15:30.105Z,1012.66
2016-10-25T07:16:29.625Z,1012.66
2016-10-25T07:17:29.595Z,1012.71
2016-10-25T07:18:29.570Z,1012.68
2016-10-25T07:19:29.536Z,1012.68
2016-10-25T07:20:29.524Z,1012.72
2016-10-25T07:21:29.484Z,1012.74
2016-10-25T07:22:29.488Z,1012.74
2016-10-25T07:23:29.426Z,1012.74
2016-10-25T07:24:29.389Z,1012.76
2016-10-25T07:25:29.378Z,1012.77
2016-10-25T07:26:29.341Z,1012.81
2016-10-25T07:27:29.386Z,1012.82
2016-10-25T07:28:29.287Z,1012.84
2016-10-25T07:29:29.254Z,1012.89
2016-10-25T07:30:29.288Z,1012.9
2016-10-25T07:31:29.189Z,1012.98
2016-10-25T07:32:29.173Z,1012.99
2016-10-25T07:33:29.149Z,1013.01
2016-10-25T07:34:29.114Z,1013
2016-10-25T07:35:29.092Z,1012.99
2016-10-25T07:36:29.090Z,1013.01
2016-10-25T07:37:29.016Z,1013
2016-10-25T07:38:29.014Z,1013.02
2016-10-25T07:39:28.968Z,1013.03
2016-10-25T07:40:28.941Z,1013.02
2016-10-25T07:41:28.926Z,1013.01
2016-10-25T07:42:28.923Z,1013.03
2016-10-25T07:43:28.857Z,1013.04
2016-10-25T07:44:28.828Z,1013.04
2016-10-25T07:45:28.801Z,1013.1
2016-10-25T07:46:28.769Z,1013.09
2016-10-25T07:47:28.741Z,1013.12
2016-10-25T07:48:28.712Z,1013.12
2016-10-25T07:49:28.686Z,1013.13
2016-10-25T07:50:28.662Z,1013.18
2016-10-25T07:51:28.637Z,1013.23
2016-10-25T07:52:28.619Z,1013.18
2016-10-25T07:53:28.574Z,1013.22
2016-10-25T07:54:28.555Z,1013.22
2016-10-25T07:55:28.519Z,1013.2
2016-10-25T07:56:28.837Z,1013.18
2016-10-25T07:57:28.450Z,1013.22
2016-10-25T07:58:28.428Z,1013.19
2016-10-25T07:59:28.399Z,1013.23
2016-10-25T08:00:28.368Z,1013.28
2016-10-25T08:01:28.432Z,1013.27
2016-10-25T08:02:28.313Z,1013.29
2016-10-25T08:03:28.302Z,1013.32
2016-10-25T08:04:28.268Z,1013.35
2016-10-25T08:05:28.530Z,1013.35
2016-10-25T08:06:28.203Z,1013.38
2016-10-25T08:07:28.161Z,1013.44
2016-10-25T08:09:28.148Z,1013.5
2016-10-25T08:10:28.089Z,1013.52
2016-10-25T08:11:28.059Z,1013.53
2016-10-25T08:12:28.036Z,1013.54
2016-10-25T08:13:28.012Z,1013.57
2016-10-25T08:14:27.971Z,1013.57
2016-10-25T08:15:27.934Z,1013.54
2016-10-25T08:16:27.914Z,1013.58
2016-10-25T08:17:27.877Z,1013.58
2016-10-25T08:18:27.846Z,1013.56
2016-10-25T08:19:27.824Z,1013.58
2016-10-25T08:20:27.798Z,1013.57
2016-10-25T08:21:28.096Z,1013.62
2016-10-25T08:22:28.102Z,1013.59
2016-10-25T08:23:27.745Z,1013.59
2016-10-25T08:24:27.675Z,1013.59
2016-10-25T08:25:27.672Z,1013.62
2016-10-25T08:26:27.669Z,1013.66
2016-10-25T08:27:27.605Z,1013.61
2016-10-25T08:28:27.569Z,1013.64
2016-10-25T08:29:27.554Z,1013.65
2016-10-25T08:30:27.508Z,1013.62
2016-10-25T08:31:27.487Z,1013.62
2016-10-25T08:32:27.490Z,1013.64
2016-10-25T08:33:27.431Z,1013.63
2016-10-25T08:34:27.421Z,1013.64
2016-10-25T08:35:27.386Z,1013.6
2016-10-25T08:36:27.348Z,1013.6
2016-10-25T08:37:27.354Z,1013.65
2016-10-25T08:38:27.296Z,1013.61
2016-10-25T08:39:27.262Z,1013.67
2016-10-25T08:40:27.224Z,1013.67
2016-10-25T08:41:27.200Z,1013.69
2016-10-25T08:42:27.167Z,1013.73
2016-10-25T08:43:27.146Z,1013.7
2016-10-25T08:44:27.126Z,1013.67
2016-10-25T08:45:27.074Z,1013.68
2016-10-25T08:47:27.019Z,1013.68
2016-10-25T08:48:26.994Z,1013.66
2016-10-25T08:49:26.961Z,1013.68
2016-10-25T08:50:26.934Z,1013.71
2016-10-25T08:51:26.905Z,1013.75
2016-10-25T08:53:26.849Z,1013.73
2016-10-25T08:54:26.825Z,1013.72
2016-10-25T08:55:26.787Z,1013.72
2016-10-25T08:56:26.765Z,1013.75
2016-10-25T08:57:26.759Z,1013.74
2016-10-25T08:58:26.713Z,1013.73
2016-10-25T09:00:26.659Z,1013.75
2016-10-25T09:01:26.853Z,1013.75
2016-10-25T09:02:26.599Z,1013.72
2016-10-25T09:03:26.578Z,1013.69
2016-10-25T09:04:26.535Z,1013.73
2016-10-25T09:05:26.508Z,1013.75
2016-10-25T09:06:26.477Z,1013.75
2016-10-25T09:07:26.466Z,1013.77
2016-10-25T09:08:26.507Z,1013.77
2016-10-25T09:09:26.381Z,1013.78
2016-10-25T09:10:26.362Z,1013.81
2016-10-25T09:11:26.351Z,1013.85
2016-10-25T09:12:26.296Z,1013.86
2016-10-25T09:13:26.282Z,1013.87
2016-10-25T09:14:26.274Z,1013.86
2016-10-25T09:15:26.223Z,1013.9
2016-10-25T09:16:26.183Z,1013.91
2016-10-25T09:17:26.171Z,1013.89
2016-10-25T09:18:26.161Z,1013.89
2016-10-25T09:19:26.098Z,1013.91
2016-10-25T09:20:26.094Z,1013.9
2016-10-25T09:22:26.058Z,1013.9
2016-10-25T09:23:26.020Z,1013.93
2016-10-25T09:24:26.017Z,1013.96
2016-10-25T09:25:25.929Z,1013.97
2016-10-25T09:26:25.900Z,1013.99
2016-10-25T09:27:25.872Z,1013.99
2016-10-25T09:28:25.847Z,1013.98
2016-10-25T09:29:25.919Z,1013.99
2016-10-25T09:30:25.787Z,1014.04
2016-10-25T09:31:25.754Z,1014.08
2016-10-25T09:32:25.716Z,1014.08
2016-10-25T09:33:25.698Z,1014.16
2016-10-25T09:34:25.673Z,1014.14
2016-10-25T09:35:25.668Z,1014.21
2016-10-25T09:36:25.624Z,1014.17
2016-10-25T09:37:25.593Z,1014.21
2016-10-25T09:38:25.567Z,1014.17
2016-10-25T09:39:25.531Z,1014.2
2016-10-25T09:40:25.495Z,1014.21
2016-10-25T09:41:25.475Z,1014.21
2016-10-25T09:42:25.444Z,1014.23
2016-10-25T09:43:25.410Z,1014.18
2016-10-25T09:44:25.378Z,1014.23
2016-10-25T09:45:25.366Z,1014.24
2016-10-25T09:47:25.311Z,1014.25
2016-10-25T09:48:25.287Z,1014.33
2016-10-25T09:49:25.237Z,1014.39
2016-10-25T09:50:25.612Z,1014.43
2016-10-25T09:51:25.198Z,1014.45
2016-10-25T09:52:25.148Z,1014.52
2016-10-25T09:53:25.113Z,1014.48
2016-10-25T09:54:25.114Z,1014.5
2016-10-25T09:55:25.639Z,1014.54
2016-10-25T09:56:25.058Z,1014.53
2016-10-25T09:57:24.998Z,1014.52
2016-10-25T09:58:24.971Z,1014.51
2016-10-25T09:59:24.944Z,1014.52
2016-10-25T10:00:25.121Z,1014.53
2016-10-25T10:01:24.924Z,1014.58
2016-10-25T10:02:24.863Z,1014.56
2016-10-25T10:03:24.836Z,1014.64
2016-10-25T10:04:24.810Z,1014.64
2016-10-25T10:05:24.780Z,1014.69
2016-10-25T10:06:24.745Z,1014.65
2016-10-25T10:07:24.719Z,1014.69
2016-10-25T10:08:24.697Z,1014.68
2016-10-25T10:09:24.653Z,1014.7
2016-10-25T10:10:24.673Z,1014.73
2016-10-25T10:11:24.607Z,1014.71
2016-10-25T10:12:24.570Z,1014.71
2016-10-25T10:13:24.548Z,1014.71
2016-10-25T10:14:24.601Z,1014.75
2016-10-25T10:15:24.506Z,1014.8
2016-10-25T10:16:24.489Z,1014.82
2016-10-25T10:17:24.447Z,1014.82
2016-10-25T10:18:24.399Z,1014.88
2016-10-25T10:19:24.369Z,1014.9
2016-10-25T10:20:24.340Z,1014.93
2016-10-25T10:21:24.310Z,1014.97
2016-10-25T10:22:24.302Z,1015
2016-10-25T10:23:24.250Z,1015.01
2016-10-25T10:24:24.220Z,1015.03
2016-10-25T10:26:24.174Z,1015.02
2016-10-25T10:27:24.145Z,1015.02
2016-10-25T10:28:24.111Z,1015.03
2016-10-25T10:29:24.304Z,1015.09
2016-10-25T10:31:24.025Z,1015.13
2016-10-25T10:32:24.010Z,1015.13
2016-10-25T10:33:23.982Z,1015.14
2016-10-25T10:34:23.956Z,1015.13
2016-10-25T10:35:24.823Z,1015.17
2016-10-25T10:36:23.888Z,1015.19
2016-10-25T10:37:23.966Z,1015.19
2016-10-25T10:38:23.835Z,1015.19
2016-10-25T10:39:23.803Z,1015.23
2016-10-25T10:40:23.779Z,1015.2
2016-10-25T10:42:24.030Z,1015.18
2016-10-25T10:43:23.685Z,1015.13
2016-10-25T10:44:23.657Z,1015.17
2016-10-25T10:45:23.691Z,1015.17
2016-10-25T10:46:23.603Z,1015.22
2016-10-25T10:47:23.570Z,1015.17
2016-10-25T10:48:23.597Z,1015.19
2016-10-25T10:49:23.502Z,1015.15
2016-10-25T10:50:23.479Z,1015.12
2016-10-25T10:51:23.454Z,1015.06
2016-10-25T10:52:23.419Z,1015.08
2016-10-25T10:53:23.397Z,1015.06
2016-10-25T10:54:23.365Z,1015.04
2016-10-25T10:55:23.355Z,1015.06
2016-10-25T10:56:23.316Z,1015.06
2016-10-25T10:57:23.282Z,1015.09
2016-10-25T10:58:23.263Z,1015.09
2016-10-25T10:59:23.222Z,1015.11
2016-10-25T11:00:23.205Z,1015.1
2016-10-25T11:01:23.224Z,1015.13
2016-10-25T11:02:23.167Z,1015.15
2016-10-25T11:04:23.160Z,1015.22
2016-10-25T11:05:23.401Z,1015.2
2016-10-25T11:06:23.051Z,1015.24
2016-10-25T11:07:22.991Z,1015.25
2016-10-25T11:08:22.975Z,1015.26
2016-10-25T11:09:23.278Z,1015.25
2016-10-25T11:10:22.919Z,1015.26
2016-10-25T11:11:22.882Z,1015.2
2016-10-25T11:12:22.855Z,1015.21
2016-10-25T11:13:22.870Z,1015.23
2016-10-25T11:14:22.797Z,1015.18
2016-10-25T11:15:22.755Z,1015.16
2016-10-25T11:16:22.737Z,1015.19
2016-10-25T11:17:22.729Z,1015.22
2016-10-25T11:18:22.686Z,1015.25
2016-10-25T11:19:22.654Z,1015.25
2016-10-25T11:20:22.624Z,1015.25
2016-10-25T11:21:22.608Z,1015.25
2016-10-25T11:22:22.567Z,1015.3
2016-10-25T11:23:22.557Z,1015.27
2016-10-25T11:24:22.603Z,1015.24
2016-10-25T11:25:22.473Z,1015.28
2016-10-25T11:26:22.469Z,1015.26
2016-10-25T11:27:22.448Z,1015.24
2016-10-25T11:28:22.412Z,1015.26
2016-10-25T11:29:22.365Z,1015.27
2016-10-25T11:30:22.335Z,1015.24
2016-10-25T11:31:22.309Z,1015.26
2016-10-25T11:32:22.299Z,1015.26
2016-10-25T11:33:22.244Z,1015.28
2016-10-25T11:34:22.232Z,1015.33
2016-10-25T11:35:22.644Z,1015.31
2016-10-25T11:36:22.168Z,1015.31
2016-10-25T11:37:22.135Z,1015.32
2016-10-25T11:38:22.103Z,1015.3
2016-10-25T11:39:22.082Z,1015.34
2016-10-25T11:40:22.051Z,1015.34
2016-10-25T11:41:22.031Z,1015.32
2016-10-25T11:42:21.999Z,1015.28
2016-10-25T11:43:21.960Z,1015.29
2016-10-25T11:44:21.939Z,1015.28
2016-10-25T11:45:21.947Z,1015.27
2016-10-25T11:46:21.923Z,1015.26
2016-10-25T11:47:22.147Z,1015.2
2016-10-25T11:48:21.827Z,1015.2
2016-10-25T11:49:21.795Z,1015.21
2016-10-25T11:50:21.783Z,1015.23
2016-10-25T11:51:21.740Z,1015.19
2016-10-25T11:52:21.728Z,1015.21
2016-10-25T11:53:21.694Z,1015.26
2016-10-25T11:54:21.652Z,1015.23
2016-10-25T11:55:21.812Z,1015.29
2016-10-25T11:56:21.666Z,1015.28
2016-10-25T11:57:21.583Z,1015.31
2016-10-25T11:58:21.551Z,1015.29
2016-10-25T11:59:21.551Z,1015.4
2016-10-25T12:00:21.477Z,1015.39
2016-10-25T12:01:21.536Z,1015.4
2016-10-25T12:04:44.792Z,1015.32
2016-10-25T12:06:44.480Z,1015.3
2016-10-25T12:07:44.439Z,1015.31
2016-10-25T12:08:44.482Z,1015.34
2016-10-25T12:09:44.392Z,1015.41
2016-10-25T12:10:44.352Z,1015.42
2016-10-25T12:11:44.360Z,1015.46
2016-10-25T12:12:44.311Z,1015.54
2016-10-25T12:13:44.273Z,1015.54
2016-10-25T12:14:44.272Z,1015.57
2016-10-25T12:15:44.850Z,1015.55
2016-10-25T12:16:44.197Z,1015.57
2016-10-25T12:17:44.168Z,1015.59
2016-10-25T12:18:44.145Z,1015.54
2016-10-25T12:19:44.103Z,1015.47
2016-10-25T12:20:44.077Z,1015.47
2016-10-25T12:21:44.288Z,1015.43
2016-10-25T12:22:44.032Z,1015.41
2016-10-25T12:23:43.998Z,1015.34
2016-10-25T12:24:43.960Z,1015.33
2016-10-25T12:25:44.104Z,1015.29
2016-10-25T12:26:43.908Z,1015.32
2016-10-25T12:27:43.868Z,1015.29
2016-10-25T12:28:43.868Z,1015.35
2016-10-25T12:29:43.815Z,1015.3
2016-10-25T12:30:43.796Z,1015.34
2016-10-25T12:31:43.764Z,1015.39
2016-10-25T12:32:43.732Z,1015.38
2016-10-25T12:33:43.903Z,1015.34
2016-10-25T12:34:43.688Z,1015.45
2016-10-25T12:35:43.645Z,1015.4
2016-10-25T12:36:43.618Z,1015.45
2016-10-25T12:38:43.571Z,1015.47
2016-10-25T12:39:43.529Z,1015.49
2016-10-25T12:40:43.510Z,1015.6
2016-10-25T12:41:44.748Z,1015.54
2016-10-25T12:42:43.446Z,1015.61
2016-10-25T12:43:43.422Z,1015.62
2016-10-25T12:44:43.405Z,1015.62
2016-10-25T12:49:29.625Z,1015.55
2016-10-25T12:50:29.584Z,1015.5